Accueil
METAR-TAF:

METAR-TAF

Aéroports :

Base aérienne de Thulé

Thulé, Groenland

latitude: 76-32N, longitude: 068-42W, altitude: 77 m

Observation

Le bulletin a été fait il y a 29 minutes, à 06:56 UTC
Vent 9 kt de est
Température -28°C
Humidité 75%
Pression 987 hPa
Visibilité 10 km ou plus
Ciel clair

METAR: BGTL 210656Z AUTO 09009KT 9999 CLR M28/M31 A2914 RMK AO2 SLP862 T12771312 TSNO $

Heure: 03:25 (07:25 UTC)

Prévision

Le bulletin a été fait il y a 13 heures et 25 minutes, à 18:00 UTC
Prévision valable du 20 à 18 UTC au 21 à 24 UTC
Vent 9 kt de est
Visibilité: 2110 m
Ciel clair

TAF: BGTL 201800Z 2018/2124 10009KT 9999 SKC QNH2914INS TXM26/2106Z TNM29/2112Z LAST NO AMDS AFT 2020 NEXT 2110

Observations et prévisions météorologiques de plus de 4000 aéroports (messages METAR et TAF).

Les stations disponibles sont représentées par des disques jaunes et rouges sur la carte.

Passer la souris dessus pour voir le nom de la station.

Cliquer dessus pour voir les observations et prévisions météorologiques.

Pour changer de carte: cliquez sur les boutons verts avec une croix noire pour zoomer, sur le bouton vert avec un tiret pour effectuer un zoom arrière, ou sur les flèches vertes pour les cartes adjacentes.


METAR-TAF: